Terminal Aerodrome Forecast
Issued by NWS Duluth, MN

Home | Current Version | Previous Version | Text Only | Print | Product List | Glossary On
Versions: 1 2 3 4 5 6 7 8 9 10 11 12 13 14 15 16 17 18 19 20
000
FTUS43 KDLH 211739
TAFINL
TAF
KINL 211739Z 2118/2218 11006KT P6SM VCSH OVC004
     FM212300 06003KT 3SM -DZ BR OVC004
     FM220600 VRB03KT 1/2SM -DZ FG OVC001
     FM221600 33002KT 1 1/2SM BR OVC003=

USA.gov is the U.S. government's official web portal to all federal, state and local government web resources and services.